createdAt,value
2022-09-07T00:00:16.114Z,3.77
2022-09-07T00:02:45.959Z,3.37
2022-09-07T00:05:15.799Z,3.47
2022-09-07T00:07:45.587Z,3.13
2022-09-07T00:10:15.124Z,3.17
2022-09-07T00:12:44.900Z,3.10
2022-09-07T00:15:15.002Z,2.90
2022-09-07T00:17:44.777Z,2.90
2022-09-07T00:20:15.012Z,3.10
2022-09-07T00:22:46.151Z,2.83
2022-09-07T00:25:16.072Z,2.80
2022-09-07T00:27:45.597Z,3.70
2022-09-07T00:30:16.380Z,3.37
2022-09-07T00:32:46.315Z,2.87
2022-09-07T00:35:16.405Z,2.85
2022-09-07T00:37:46.179Z,2.53
2022-09-07T00:40:17.621Z,2.40
2022-09-07T00:42:47.396Z,2.57
2022-09-07T00:45:22.409Z,2.42
2022-09-07T00:48:00.746Z,2.50
2022-09-07T00:50:39.448Z,2.58
2022-09-07T00:53:29.920Z,2.73
2022-09-07T00:56:02.034Z,2.63
2022-09-07T00:58:34.056Z,3.00
2022-09-07T01:01:03.917Z,3.00
2022-09-07T01:03:36.409Z,2.45
2022-09-07T01:06:20.623Z,2.50
2022-09-07T01:08:51.412Z,2.35
2022-09-07T01:11:23.826Z,2.60
2022-09-07T01:13:54.736Z,2.77
2022-09-07T01:16:49.417Z,2.75
2022-09-07T01:19:31.085Z,2.50
2022-09-07T01:22:13.026Z,2.92
2022-09-07T01:24:48.296Z,2.57
2022-09-07T01:27:48.083Z,2.60
2022-09-07T01:30:20.918Z,2.45
2022-09-07T01:33:02.860Z,2.63
2022-09-07T01:35:44.111Z,3.15
2022-09-07T01:38:27.343Z,2.60
2022-09-07T01:41:12.168Z,3.13
2022-09-07T01:43:50.744Z,3.40
2022-09-07T01:46:29.306Z,3.37
2022-09-07T01:49:11.094Z,3.10
2022-09-07T01:51:43.904Z,3.57
2022-09-07T01:54:18.111Z,3.53
2022-09-07T01:56:51.095Z,3.70
2022-09-07T01:59:26.280Z,3.10
2022-09-07T02:02:13.639Z,4.17
2022-09-07T02:04:52.046Z,4.10
2022-09-07T02:07:27.278Z,3.60
2022-09-07T02:10:02.513Z,3.70
2022-09-07T02:12:37.425Z,4.17
2022-09-07T02:15:11.415Z,3.55
2022-09-07T02:17:46.760Z,3.93
2022-09-07T02:20:21.739Z,4.42
2022-09-07T02:22:54.618Z,3.70
2022-09-07T02:25:27.311Z,3.92
2022-09-07T02:28:00.117Z,3.50
2022-09-07T02:30:29.685Z,3.73
2022-09-07T02:32:59.446Z,3.50
2022-09-07T02:35:29.856Z,3.10
2022-09-07T02:38:03.487Z,3.15
2022-09-07T02:40:33.690Z,3.37
2022-09-07T02:43:06.651Z,3.10
2022-09-07T02:46:00.305Z,3.00
2022-09-07T02:48:36.009Z,2.60
2022-09-07T02:51:11.030Z,3.10
2022-09-07T02:54:03.169Z,3.13
2022-09-07T02:56:44.473Z,2.92
2022-09-07T02:59:32.173Z,2.90
2022-09-07T03:02:30.252Z,2.77
2022-09-07T03:05:14.861Z,2.97
2022-09-07T03:08:05.673Z,2.97
2022-09-07T03:10:36.985Z,2.35
2022-09-07T03:13:07.195Z,2.37
2022-09-07T03:15:37.016Z,2.40
2022-09-07T03:18:08.567Z,2.08
2022-09-07T03:20:38.322Z,2.27
2022-09-07T03:23:08.154Z,2.00
2022-09-07T03:25:38.516Z,2.17
2022-09-07T03:28:08.785Z,2.27
2022-09-07T03:30:40.164Z,2.30
2022-09-07T03:33:09.983Z,1.67
2022-09-07T03:35:39.744Z,1.77
2022-09-07T03:38:10.876Z,2.04
2022-09-07T03:40:40.927Z,1.77
2022-09-07T03:43:10.704Z,1.90
2022-09-07T03:45:40.579Z,1.87
2022-09-07T03:48:11.476Z,2.20
2022-09-07T03:50:41.233Z,2.00
2022-09-07T03:53:11.002Z,2.00
2022-09-07T03:55:40.847Z,2.40
2022-09-07T03:58:11.481Z,2.30
2022-09-07T04:00:43.073Z,2.27
2022-09-07T04:03:12.837Z,2.17
2022-09-07T04:05:42.592Z,1.90
2022-09-07T04:08:13.065Z,2.12
2022-09-07T04:10:43.392Z,2.10
2022-09-07T04:13:13.464Z,2.77
2022-09-07T04:15:42.932Z,2.20
2022-09-07T04:18:13.137Z,2.17
2022-09-07T04:20:42.974Z,2.00
2022-09-07T04:23:13.502Z,2.17
2022-09-07T04:25:53.305Z,2.63
2022-09-07T04:28:23.066Z,2.98
2022-09-07T04:30:52.905Z,2.53
2022-09-07T04:33:22.988Z,2.98
2022-09-07T04:35:52.755Z,2.30
2022-09-07T04:38:22.365Z,2.47
2022-09-07T04:40:53.660Z,3.47
2022-09-07T04:43:23.554Z,2.80
2022-09-07T04:45:53.352Z,2.97
2022-09-07T04:48:23.192Z,2.87
2022-09-07T04:50:53.254Z,3.08
2022-09-07T04:53:23.019Z,3.20
2022-09-07T04:55:52.857Z,4.00
2022-09-07T04:58:22.632Z,3.03
2022-09-07T05:00:52.459Z,3.73
2022-09-07T05:03:22.520Z,3.93
2022-09-07T05:05:52.285Z,5.10
2022-09-07T05:08:22.057Z,4.33
2022-09-07T05:10:56.643Z,5.10
2022-09-07T05:13:26.415Z,6.10
2022-09-07T05:15:56.225Z,5.60
2022-09-07T05:18:26.263Z,5.50
2022-09-07T05:20:56.329Z,7.10
2022-09-07T05:23:26.172Z,6.80
2022-09-07T05:25:55.943Z,7.03
2022-09-07T05:28:25.708Z,7.28
2022-09-07T05:35:59.561Z,7.43
2022-09-07T05:38:29.878Z,8.00
2022-09-07T05:40:59.727Z,8.27
2022-09-07T05:43:30.897Z,8.35
2022-09-07T05:46:00.738Z,8.73
2022-09-07T05:48:31.198Z,8.73
2022-09-07T05:51:01.128Z,9.27
2022-09-07T05:53:31.233Z,9.50
2022-09-07T05:56:06.461Z,8.60
2022-09-07T05:58:33.364Z,9.55
2022-09-07T06:01:06.325Z,9.57
2022-09-07T06:03:40.581Z,9.83
2022-09-07T06:06:12.675Z,9.45
2022-09-07T06:08:47.761Z,9.08
2022-09-07T06:11:23.310Z,10.70
2022-09-07T06:13:53.470Z,11.80
2022-09-07T06:16:23.242Z,11.33
2022-09-07T06:18:53.126Z,12.10
2022-09-07T06:21:24.601Z,12.23
2022-09-07T06:23:55.364Z,14.73
2022-09-07T06:26:24.841Z,14.93
2022-09-07T06:28:57.805Z,15.73
2022-09-07T06:31:26.271Z,16.17
2022-09-07T06:33:56.667Z,16.30
2022-09-07T06:36:28.196Z,15.50
2022-09-07T06:39:01.589Z,16.45
2022-09-07T06:44:04.831Z,17.57
2022-09-07T06:49:06.077Z,17.90
2022-09-07T06:51:35.860Z,17.17
2022-09-07T06:56:38.518Z,18.00
2022-09-07T06:59:08.566Z,17.57
2022-09-07T07:01:38.349Z,18.03
2022-09-07T07:04:08.139Z,16.23
2022-09-07T07:06:39.463Z,16.33
2022-09-07T07:09:11.631Z,17.27
2022-09-07T07:11:43.485Z,16.97
2022-09-07T07:14:15.393Z,16.50
2022-09-07T07:16:45.316Z,17.43
2022-09-07T07:19:15.243Z,17.67
2022-09-07T07:22:07.906Z,17.45
2022-09-07T07:24:16.606Z,18.50
2022-09-07T07:26:48.025Z,18.60
2022-09-07T07:29:18.914Z,18.13
2022-09-07T07:31:49.144Z,18.35
2022-09-07T07:34:19.015Z,18.20
2022-09-07T07:36:48.786Z,19.73
2022-09-07T07:41:54.453Z,18.30
2022-09-07T07:44:22.006Z,20.92
2022-09-07T07:46:52.491Z,20.27
2022-09-07T07:49:22.285Z,21.57
2022-09-07T07:54:24.729Z,22.43
2022-09-07T07:56:54.489Z,21.10
2022-09-07T07:59:24.235Z,21.03
2022-09-07T08:01:54.156Z,19.87
2022-09-07T08:04:24.013Z,19.80
2022-09-07T08:06:53.762Z,20.17
2022-09-07T08:09:23.579Z,19.27
2022-09-07T08:11:53.548Z,19.73
2022-09-07T08:14:23.396Z,18.35
2022-09-07T08:16:53.148Z,18.77
2022-09-07T08:19:22.895Z,17.13
2022-09-07T08:21:53.015Z,17.17
2022-09-07T08:24:22.681Z,16.67
2022-09-07T08:26:52.706Z,15.80
2022-09-07T08:29:22.444Z,16.50
2022-09-07T08:31:52.676Z,16.57
2022-09-07T08:34:22.569Z,16.57
2022-09-07T08:36:52.012Z,16.50
2022-09-07T08:39:21.832Z,17.20
2022-09-07T08:42:08.466Z,17.27
2022-09-07T08:44:55.230Z,17.60
2022-09-07T08:47:48.999Z,16.80
2022-09-07T08:50:28.797Z,17.70
2022-09-07T08:53:04.545Z,18.73
2022-09-07T08:55:37.383Z,18.20
2022-09-07T08:58:47.630Z,17.08
2022-09-07T09:01:30.636Z,16.33
2022-09-07T09:03:33.053Z,16.95
2022-09-07T09:06:08.403Z,17.67
2022-09-07T09:08:50.097Z,17.43
2022-09-07T09:11:25.925Z,16.90
2022-09-07T09:14:14.831Z,16.63
2022-09-07T09:17:02.104Z,16.37
2022-09-07T09:20:01.424Z,16.33
2022-09-07T09:22:31.271Z,15.45
2022-09-07T09:25:06.718Z,14.07
2022-09-07T09:27:36.469Z,14.40
2022-09-07T09:30:17.952Z,15.20
2022-09-07T09:32:50.549Z,13.97
2022-09-07T09:35:29.752Z,12.95
2022-09-07T09:37:59.942Z,13.08
2022-09-07T09:40:32.713Z,13.13
2022-09-07T09:43:20.440Z,11.23
2022-09-07T09:48:36.084Z,10.55
2022-09-07T09:53:42.534Z,10.85
2022-09-07T09:56:12.234Z,11.23
2022-09-07T10:01:28.008Z,10.23
2022-09-07T10:04:01.355Z,10.53
2022-09-07T10:06:32.075Z,11.48
2022-09-07T10:09:05.010Z,10.53
2022-09-07T10:14:35.662Z,10.00
2022-09-07T10:17:32.302Z,7.90
2022-09-07T10:20:04.784Z,8.97
2022-09-07T10:22:37.030Z,8.40
2022-09-07T10:25:10.773Z,8.27
2022-09-07T10:27:40.860Z,8.43
2022-09-07T10:30:17.718Z,7.37
2022-09-07T10:32:55.978Z,7.80
2022-09-07T10:35:40.432Z,7.65
2022-09-07T10:38:25.813Z,7.70
2022-09-07T10:40:58.639Z,6.40
2022-09-07T10:43:49.801Z,6.93
2022-09-07T10:49:12.307Z,5.70
2022-09-07T10:51:44.811Z,5.35
2022-09-07T10:54:31.124Z,5.10
2022-09-07T10:57:06.954Z,5.40
2022-09-07T11:05:46.985Z,3.20
2022-09-07T11:08:19.729Z,3.10
2022-09-07T11:10:58.192Z,3.87
2022-09-07T11:13:31.290Z,3.83
2022-09-07T11:16:04.157Z,3.33
2022-09-07T11:18:41.972Z,3.67
2022-09-07T11:21:56.230Z,3.47
2022-09-07T11:23:57.791Z,3.90
2022-09-07T11:26:33.235Z,4.33
2022-09-07T11:31:42.380Z,3.95
2022-09-07T11:34:46.016Z,3.45
2022-09-07T11:37:33.428Z,3.17
2022-09-07T11:40:06.344Z,2.40
2022-09-07T11:42:43.489Z,2.23
2022-09-07T11:45:34.531Z,2.72
2022-09-07T11:48:19.574Z,2.40
2022-09-07T11:50:52.555Z,2.80
2022-09-07T11:53:31.339Z,2.98
2022-09-07T11:56:04.104Z,2.40
2022-09-07T11:58:53.262Z,2.30
2022-09-07T12:01:31.888Z,2.17
2022-09-07T12:04:15.847Z,1.83
2022-09-07T12:06:48.616Z,1.97
2022-09-07T12:09:37.472Z,2.05
2022-09-07T12:12:46.659Z,1.50
2022-09-07T12:15:26.751Z,1.80
2022-09-07T12:18:19.842Z,2.00
2022-09-07T12:20:50.482Z,1.67
2022-09-07T12:23:23.250Z,1.90
2022-09-07T12:25:53.595Z,1.50
2022-09-07T12:28:29.233Z,1.60
2022-09-07T12:31:04.460Z,1.60
2022-09-07T12:33:39.252Z,1.40
2022-09-07T12:36:32.663Z,1.72
2022-09-07T12:39:25.009Z,1.40
2022-09-07T12:44:40.518Z,1.87
2022-09-07T12:47:16.121Z,1.90
2022-09-07T12:50:06.175Z,1.43
2022-09-07T12:52:47.612Z,1.30
2022-09-07T12:58:23.787Z,1.30
2022-09-07T13:01:05.227Z,1.73
2022-09-07T13:03:50.247Z,1.50
2022-09-07T13:09:37.524Z,1.32
2022-09-07T13:14:59.650Z,1.80
2022-09-07T13:17:41.759Z,1.13
2022-09-07T13:20:21.034Z,1.74
2022-09-07T13:22:53.814Z,1.90
2022-09-07T13:25:29.596Z,2.00
2022-09-07T13:28:02.637Z,1.55
2022-09-07T13:30:47.272Z,1.63
2022-09-07T13:33:32.543Z,1.50
2022-09-07T13:36:05.121Z,1.60
2022-09-07T13:38:36.818Z,1.40
2022-09-07T13:41:14.973Z,1.50
2022-09-07T13:43:51.724Z,1.43
2022-09-07T13:46:42.019Z,1.67
2022-09-07T13:49:20.122Z,1.63
2022-09-07T13:52:07.735Z,1.10
2022-09-07T13:54:51.599Z,1.40
2022-09-07T13:57:33.247Z,1.43
2022-09-07T14:00:03.114Z,1.53
2022-09-07T14:02:37.474Z,1.33
2022-09-07T14:05:11.435Z,1.20
2022-09-07T14:07:44.221Z,1.07
2022-09-07T14:10:24.905Z,1.22
2022-09-07T14:13:08.580Z,1.10
2022-09-07T14:15:46.940Z,1.20
2022-09-07T14:18:19.358Z,1.00
2022-09-07T14:20:53.805Z,1.17
2022-09-07T14:23:35.526Z,0.70
2022-09-07T14:26:20.009Z,0.77
2022-09-07T14:28:52.449Z,1.10
2022-09-07T14:31:25.236Z,1.20
2022-09-07T14:33:57.539Z,1.33
2022-09-07T14:36:44.076Z,1.10
2022-09-07T14:39:09.780Z,0.90
2022-09-07T14:41:41.820Z,1.57
2022-09-07T14:44:35.432Z,1.13
2022-09-07T14:47:12.486Z,1.07
2022-09-07T14:49:43.637Z,1.00
2022-09-07T14:52:16.940Z,1.53
2022-09-07T14:54:49.698Z,0.90
2022-09-07T14:57:25.582Z,1.00
2022-09-07T14:59:57.209Z,0.75
2022-09-07T15:02:36.193Z,0.85
2022-09-07T15:05:23.066Z,0.70
2022-09-07T15:07:57.940Z,1.27
2022-09-07T15:10:35.178Z,0.72
2022-09-07T15:13:07.114Z,1.07
2022-09-07T15:15:40.313Z,0.90
2022-09-07T15:18:53.316Z,0.97
2022-09-07T15:21:28.369Z,1.00
2022-09-07T15:23:59.595Z,0.77
2022-09-07T15:29:12.857Z,0.90
2022-09-07T15:31:49.737Z,1.13
2022-09-07T15:34:20.029Z,0.88
2022-09-07T15:36:52.941Z,1.10
2022-09-07T15:39:25.807Z,0.80
2022-09-07T15:41:55.777Z,1.10
2022-09-07T15:44:28.059Z,0.80
2022-09-07T15:49:29.137Z,0.97
2022-09-07T15:52:06.631Z,0.90
2022-09-07T15:54:31.105Z,0.90
2022-09-07T15:59:33.461Z,0.80
2022-09-07T16:02:03.358Z,0.80
2022-09-07T16:04:33.322Z,1.00
2022-09-07T16:07:03.049Z,0.80
2022-09-07T16:09:32.764Z,1.20
2022-09-07T16:14:35.111Z,1.10
2022-09-07T16:19:40.633Z,1.10
2022-09-07T16:22:09.961Z,0.83
2022-09-07T16:24:40.304Z,1.00
2022-09-07T16:27:10.704Z,0.80
2022-09-07T16:29:40.254Z,0.70
2022-09-07T16:34:42.829Z,1.10
2022-09-07T16:37:12.663Z,0.60
2022-09-07T16:39:42.807Z,0.93
2022-09-07T16:42:12.667Z,0.62
2022-09-07T16:44:42.670Z,0.70
2022-09-07T16:47:12.738Z,0.60
2022-09-07T16:49:42.461Z,0.63
2022-09-07T16:52:12.194Z,0.98
2022-09-07T16:54:41.978Z,1.03
2022-09-07T16:57:11.722Z,1.07
2022-09-07T16:59:41.455Z,0.93
2022-09-07T17:02:18.479Z,0.82
2022-09-07T17:04:48.032Z,0.85
2022-09-07T17:07:17.756Z,1.30
2022-09-07T17:09:47.473Z,1.40
2022-09-07T17:12:16.933Z,0.83
2022-09-07T17:14:46.647Z,1.20
2022-09-07T17:17:16.414Z,1.40
2022-09-07T17:19:46.132Z,0.90
2022-09-07T17:22:16.200Z,0.83
2022-09-07T17:24:46.454Z,1.10
2022-09-07T17:27:17.112Z,1.50
2022-09-07T17:29:46.863Z,1.33
2022-09-07T17:32:25.039Z,1.95
2022-09-07T17:34:48.529Z,1.00
2022-09-07T17:37:18.253Z,1.70
2022-09-07T17:39:48.118Z,1.30
2022-09-07T17:42:17.954Z,1.50
2022-09-07T17:44:52.794Z,0.93
2022-09-07T17:47:19.089Z,1.00
2022-09-07T17:49:48.818Z,0.77
2022-09-07T17:52:18.539Z,1.25
2022-09-07T17:54:48.808Z,1.30
2022-09-07T17:57:18.241Z,1.30
2022-09-07T18:02:21.072Z,1.20
2022-09-07T18:04:50.921Z,1.50
2022-09-07T18:07:20.597Z,1.40
2022-09-07T18:09:50.333Z,1.40
2022-09-07T18:12:20.074Z,1.37
2022-09-07T18:14:49.801Z,1.03
2022-09-07T18:17:19.815Z,1.42
2022-09-07T18:19:49.544Z,1.50
2022-09-07T18:22:19.451Z,1.00
2022-09-07T18:24:50.848Z,1.40
2022-09-07T18:27:21.321Z,1.13
2022-09-07T18:29:51.047Z,1.47
2022-09-07T18:32:20.477Z,1.50
2022-09-07T18:34:50.868Z,1.20
2022-09-07T18:37:20.771Z,1.30
2022-09-07T18:39:50.563Z,1.13
2022-09-07T18:42:20.042Z,1.30
2022-09-07T18:47:27.241Z,1.23
2022-09-07T18:49:52.765Z,1.40
2022-09-07T18:54:54.825Z,1.87
2022-09-07T18:57:25.137Z,1.53
2022-09-07T18:59:54.935Z,1.50
2022-09-07T19:02:24.802Z,1.52
2022-09-07T19:07:29.542Z,1.70
2022-09-07T19:09:58.136Z,1.40
2022-09-07T19:12:27.790Z,1.17
2022-09-07T19:14:57.513Z,1.60
2022-09-07T19:17:27.537Z,1.45
2022-09-07T19:19:57.624Z,1.55
2022-09-07T19:22:27.612Z,1.72
2022-09-07T19:24:57.643Z,2.15
2022-09-07T19:27:27.732Z,1.50
2022-09-07T19:29:57.461Z,2.07
2022-09-07T19:32:26.910Z,1.80
2022-09-07T19:34:56.637Z,1.93
2022-09-07T19:37:28.363Z,1.62
2022-09-07T19:39:58.799Z,1.80
2022-09-07T19:42:28.729Z,1.73
2022-09-07T19:44:58.635Z,2.10
2022-09-07T19:47:28.729Z,1.95
2022-09-07T19:49:58.464Z,1.80
2022-09-07T19:52:28.182Z,1.80
2022-09-07T19:54:59.546Z,1.73
2022-09-07T19:57:29.337Z,1.70
2022-09-07T20:00:00.141Z,2.07
2022-09-07T20:02:29.863Z,1.40
2022-09-07T20:04:59.587Z,1.90
2022-09-07T20:07:29.323Z,1.47
2022-09-07T20:09:59.039Z,1.37
2022-09-07T20:12:28.767Z,1.50
2022-09-07T20:14:58.491Z,1.43
2022-09-07T20:17:34.449Z,1.50
2022-09-07T20:20:00.307Z,1.40
2022-09-07T20:22:31.301Z,1.70
2022-09-07T20:25:01.029Z,1.57
2022-09-07T20:27:30.923Z,1.50
2022-09-07T20:30:00.951Z,1.85
2022-09-07T20:32:31.044Z,2.10
2022-09-07T20:35:01.563Z,1.60
2022-09-07T20:37:31.581Z,1.50
2022-09-07T20:40:01.778Z,1.85
2022-09-07T20:42:31.535Z,2.00
2022-09-07T20:45:02.206Z,1.50
2022-09-07T20:47:32.017Z,1.90
2022-09-07T20:50:01.746Z,1.90
2022-09-07T20:52:31.538Z,1.87
2022-09-07T20:55:01.551Z,1.45
2022-09-07T20:57:31.579Z,1.60
2022-09-07T21:00:01.679Z,2.00
2022-09-07T21:02:32.635Z,1.95
2022-09-07T21:05:02.355Z,2.00
2022-09-07T21:07:32.082Z,2.20
2022-09-07T21:10:06.042Z,2.17
2022-09-07T21:12:33.708Z,2.08
2022-09-07T21:15:03.645Z,1.77
2022-09-07T21:17:33.760Z,2.12
2022-09-07T21:20:03.827Z,2.10
2022-09-07T21:22:33.549Z,2.40
2022-09-07T21:25:03.578Z,2.58
2022-09-07T21:27:38.219Z,2.53
2022-09-07T21:30:08.861Z,2.90
2022-09-07T21:32:40.258Z,2.57
2022-09-07T21:35:13.061Z,2.43
2022-09-07T21:37:42.871Z,2.50
2022-09-07T21:40:13.523Z,1.92
2022-09-07T21:42:43.231Z,2.00
2022-09-07T21:45:12.952Z,1.80
2022-09-07T21:47:42.673Z,2.10
2022-09-07T21:50:14.200Z,2.08
2022-09-07T21:52:43.922Z,2.13
2022-09-07T21:55:13.648Z,1.97
2022-09-07T21:57:43.680Z,2.00
2022-09-07T22:00:15.998Z,1.70
2022-09-07T22:02:45.787Z,1.70
2022-09-07T22:05:15.641Z,1.67
2022-09-07T22:07:45.099Z,2.25
2022-09-07T22:10:15.972Z,2.02
2022-09-07T22:12:45.693Z,2.00
2022-09-07T22:15:15.484Z,2.12
2022-09-07T22:17:46.388Z,1.97
2022-09-07T22:20:16.238Z,1.97
2022-09-07T22:22:46.427Z,1.97
2022-09-07T22:25:16.216Z,2.77
2022-09-07T22:27:45.948Z,2.03
2022-09-07T22:30:15.821Z,2.10
2022-09-07T22:32:49.245Z,1.60
2022-09-07T22:35:20.058Z,2.20
2022-09-07T22:37:50.482Z,3.13
2022-09-07T22:40:19.982Z,3.30
2022-09-07T22:42:49.693Z,2.83
2022-09-07T22:45:19.516Z,2.58
2022-09-07T22:47:49.263Z,2.40
2022-09-07T22:50:20.235Z,2.62
2022-09-07T22:52:50.317Z,2.17
2022-09-07T22:55:19.757Z,2.30
2022-09-07T22:57:49.482Z,2.50
2022-09-07T23:00:19.122Z,2.77
2022-09-07T23:02:49.219Z,2.30
2022-09-07T23:05:18.720Z,2.22
2022-09-07T23:07:49.812Z,2.03
2022-09-07T23:10:19.704Z,1.90
2022-09-07T23:12:49.494Z,1.93
2022-09-07T23:15:19.212Z,1.70
2022-09-07T23:17:48.937Z,1.87
2022-09-07T23:20:18.727Z,2.17
2022-09-07T23:22:48.884Z,2.00
2022-09-07T23:25:18.653Z,2.22
2022-09-07T23:27:48.860Z,2.22
2022-09-07T23:30:18.771Z,2.17
2022-09-07T23:32:48.215Z,2.50
2022-09-07T23:35:17.895Z,2.67
2022-09-07T23:37:47.950Z,2.65
2022-09-07T23:40:17.943Z,2.87
2022-09-07T23:42:48.404Z,2.33
2022-09-07T23:45:18.107Z,2.70
2022-09-07T23:47:47.829Z,2.53
2022-09-07T23:50:17.797Z,2.47
2022-09-07T23:52:47.389Z,2.60
2022-09-07T23:55:17.202Z,2.67
2022-09-07T23:57:47.061Z,2.60
